Aviation Digital Data Service (ADDS)

Output produced by METARs form (1245 UTC 17 September 2019)
found at http://www.aviationweather.gov/metar/data/
 
METAR text: OMDB 171200Z 31015KT CAVOK 38/24 Q1003 NOSIG
Conditions at: OMDB (DUBAI INTL AIRPO, AE) observed 1200 UTC 17 September 2019
Temperature: 38.0°C (100°F)
Dewpoint: 24.0°C (75°F) [RH = 45%]
Pressure (altimeter): 29.62 inches Hg (1003.0 mb)
Winds: from the NW (310 degrees) at 17 MPH (15 knots; 7.7 m/s)
Visibility: 6 or more miles (10+ km)
Ceiling: ceiling and visibility are OK
Clouds: unknown
Weather: no significant weather observed at this time

METAR text: OMDB 171100Z 32014KT CAVOK 39/24 Q1003 NOSIG
Conditions at: OMDB (DUBAI INTL AIRPO, AE) observed 1100 UTC 17 September 2019
Temperature: 39.0°C (102°F)
Dewpoint: 24.0°C (75°F) [RH = 43%]
Pressure (altimeter): 29.62 inches Hg (1003.0 mb)
Winds: from the NW (320 degrees) at 16 MPH (14 knots; 7.2 m/s)
Visibility: 6 or more miles (10+ km)
Ceiling: ceiling and visibility are OK
Clouds: unknown
Weather: no significant weather observed at this time

METAR text: OMDB 171000Z 29012KT 260V320 CAVOK 39/23 Q1003 NOSIG
Conditions at: OMDB (DUBAI INTL AIRPO, AE) observed 1000 UTC 17 September 2019
Temperature: 39.0°C (102°F)
Dewpoint: 23.0°C (73°F) [RH = 40%]
Pressure (altimeter): 29.62 inches Hg (1003.0 mb)
Winds: from the WNW (290 degrees) at 14 MPH (12 knots; 6.2 m/s)
Visibility: 6 or more miles (10+ km)
Ceiling: ceiling and visibility are OK
Clouds: unknown
Weather: no significant weather observed at this time

METAR text: OMDB 170900Z 30007KT 240V030 CAVOK 40/23 Q1004 NOSIG
Conditions at: OMDB (DUBAI INTL AIRPO, AE) observed 0900 UTC 17 September 2019
Temperature: 40.0°C (104°F)
Dewpoint: 23.0°C (73°F) [RH = 38%]
Pressure (altimeter): 29.65 inches Hg (1004.0 mb)
Winds: from the WNW (300 degrees) at 8 MPH (7 knots; 3.6 m/s)
Visibility: 6 or more miles (10+ km)
Ceiling: ceiling and visibility are OK
Clouds: unknown
Weather: no significant weather observed at this time

METAR text: OMDB 170800Z 26008KT CAVOK 39/20 Q1005 BECMG 32012KT
Conditions at: OMDB (DUBAI INTL AIRPO, AE) observed 0800 UTC 17 September 2019
Temperature: 39.0°C (102°F)
Dewpoint: 20.0°C (68°F) [RH = 33%]
Pressure (altimeter): 29.68 inches Hg (1005.0 mb)
Winds: from the W (260 degrees) at 9 MPH (8 knots; 4.1 m/s)
Visibility: 6 or more miles (10+ km)
Ceiling: ceiling and visibility are OK
Clouds: unknown
Weather: no significant weather observed at this time

METAR text: OMDB 170700Z 25009KT CAVOK 37/22 Q1006 BECMG 31012KT
Conditions at: OMDB (DUBAI INTL AIRPO, AE) observed 0700 UTC 17 September 2019
Temperature: 37.0°C (99°F)
Dewpoint: 22.0°C (72°F) [RH = 42%]
Pressure (altimeter): 29.70 inches Hg (1006.0 mb)
Winds: from the WSW (250 degrees) at 10 MPH (9 knots; 4.6 m/s)
Visibility: 6 or more miles (10+ km)
Ceiling: ceiling and visibility are OK
Clouds: unknown
Weather: no significant weather observed at this time

METAR text: OMDB 170600Z 22009KT 190V260 CAVOK 35/22 Q1007 NOSIG
Conditions at: OMDB (DUBAI INTL AIRPO, AE) observed 0600 UTC 17 September 2019
Temperature: 35.0°C (95°F)
Dewpoint: 22.0°C (72°F) [RH = 47%]
Pressure (altimeter): 29.73 inches Hg (1007.0 mb)
Winds: from the SW (220 degrees) at 10 MPH (9 knots; 4.6 m/s)
Visibility: 6 or more miles (10+ km)
Ceiling: ceiling and visibility are OK
Clouds: unknown
Weather: no significant weather observed at this time

METAR text: OMDB 170500Z 20010KT CAVOK 34/23 Q1007 NOSIG
Conditions at: OMDB (DUBAI INTL AIRPO, AE) observed 0500 UTC 17 September 2019
Temperature: 34.0°C (93°F)
Dewpoint: 23.0°C (73°F) [RH = 53%]
Pressure (altimeter): 29.73 inches Hg (1007.0 mb)
Winds: from the SSW (200 degrees) at 12 MPH (10 knots; 5.1 m/s)
Visibility: 6 or more miles (10+ km)
Ceiling: ceiling and visibility are OK
Clouds: unknown
Weather: no significant weather observed at this time

METAR text: OMDB 170400Z 19007KT 160V240 CAVOK 33/23 Q1006 NOSIG
Conditions at: OMDB (DUBAI INTL AIRPO, AE) observed 0400 UTC 17 September 2019
Temperature: 33.0°C (91°F)
Dewpoint: 23.0°C (73°F) [RH = 56%]
Pressure (altimeter): 29.70 inches Hg (1006.0 mb)
Winds: from the S (190 degrees) at 8 MPH (7 knots; 3.6 m/s)
Visibility: 6 or more miles (10+ km)
Ceiling: ceiling and visibility are OK
Clouds: unknown
Weather: no significant weather observed at this time

METAR text: OMDB 170300Z 18003KT 140V230 9000 NSC 32/25 Q1006 NOSIG
Conditions at: OMDB (DUBAI INTL AIRPO, AE) observed 0300 UTC 17 September 2019
Temperature: 32.0°C (90°F)
Dewpoint: 25.0°C (77°F) [RH = 67%]
Pressure (altimeter): 29.70 inches Hg (1006.0 mb)
Winds: from the S (180 degrees) at 3 MPH (3 knots; 1.5 m/s)
Visibility: 6 miles ( 9 km)
Ceiling: at least 12,000 feet AGL
Clouds: sky clear below 12,000 feet AGL
Weather: no significant weather observed at this time

METAR text: OMDB 170200Z 18004KT 9000 NSC 31/26 Q1005 NOSIG
Conditions at: OMDB (DUBAI INTL AIRPO, AE) observed 0200 UTC 17 September 2019
Temperature: 31.0°C (88°F)
Dewpoint: 26.0°C (79°F) [RH = 75%]
Pressure (altimeter): 29.68 inches Hg (1005.0 mb)
Winds: from the S (180 degrees) at 5 MPH (4 knots; 2.1 m/s)
Visibility: 6 miles ( 9 km)
Ceiling: at least 12,000 feet AGL
Clouds: sky clear below 12,000 feet AGL
Weather: no significant weather observed at this time

METAR text: OMDB 170100Z 15005KT 9000 NSC 31/27 Q1005 NOSIG
Conditions at: OMDB (DUBAI INTL AIRPO, AE) observed 0100 UTC 17 September 2019
Temperature: 31.0°C (88°F)
Dewpoint: 27.0°C (81°F) [RH = 79%]
Pressure (altimeter): 29.68 inches Hg (1005.0 mb)
Winds: from the SSE (150 degrees) at 6 MPH (5 knots; 2.6 m/s)
Visibility: 6 miles ( 9 km)
Ceiling: at least 12,000 feet AGL
Clouds: sky clear below 12,000 feet AGL
Weather: no significant weather observed at this time

METAR text: OMDB 170000Z 11005KT 9000 NSC 32/28 Q1004 NOSIG
Conditions at: OMDB (DUBAI INTL AIRPO, AE) observed 0000 UTC 17 September 2019
Temperature: 32.0°C (90°F)
Dewpoint: 28.0°C (82°F) [RH = 80%]
Pressure (altimeter): 29.65 inches Hg (1004.0 mb)
Winds: from the ESE (110 degrees) at 6 MPH (5 knots; 2.6 m/s)
Visibility: 6 miles ( 9 km)
Ceiling: at least 12,000 feet AGL
Clouds: sky clear below 12,000 feet AGL
Weather: no significant weather observed at this time

METAR text: OMDB 162300Z 10006KT 060V150 9000 NSC 32/28 Q1004 NOSIG
Conditions at: OMDB (DUBAI INTL AIRPO, AE) observed 2300 UTC 16 September 2019
Temperature: 32.0°C (90°F)
Dewpoint: 28.0°C (82°F) [RH = 80%]
Pressure (altimeter): 29.65 inches Hg (1004.0 mb)
Winds: from the E (100 degrees) at 7 MPH (6 knots; 3.1 m/s)
Visibility: 6 miles ( 9 km)
Ceiling: at least 12,000 feet AGL
Clouds: sky clear below 12,000 feet AGL
Weather: no significant weather observed at this time

METAR text: OMDB 162200Z 10005KT 9000 NSC 33/28 Q1004 NOSIG
Conditions at: OMDB (DUBAI INTL AIRPO, AE) observed 2200 UTC 16 September 2019
Temperature: 33.0°C (91°F)
Dewpoint: 28.0°C (82°F) [RH = 75%]
Pressure (altimeter): 29.65 inches Hg (1004.0 mb)
Winds: from the E (100 degrees) at 6 MPH (5 knots; 2.6 m/s)
Visibility: 6 miles ( 9 km)
Ceiling: at least 12,000 feet AGL
Clouds: sky clear below 12,000 feet AGL
Weather: no significant weather observed at this time

METAR text: OMDB 162100Z 09005KT 060V120 CAVOK 33/28 Q1005 NOSIG
Conditions at: OMDB (DUBAI INTL AIRPO, AE) observed 2100 UTC 16 September 2019
Temperature: 33.0°C (91°F)
Dewpoint: 28.0°C (82°F) [RH = 75%]
Pressure (altimeter): 29.68 inches Hg (1005.0 mb)
Winds: from the E (90 degrees) at 6 MPH (5 knots; 2.6 m/s)
Visibility: 6 or more miles (10+ km)
Ceiling: ceiling and visibility are OK
Clouds: unknown
Weather: no significant weather observed at this time

METAR text: OMDB 162000Z 36004KT 310V050 CAVOK 34/27 Q1005 NOSIG
Conditions at: OMDB (DUBAI INTL AIRPO, AE) observed 2000 UTC 16 September 2019
Temperature: 34.0°C (93°F)
Dewpoint: 27.0°C (81°F) [RH = 67%]
Pressure (altimeter): 29.68 inches Hg (1005.0 mb)
Winds: from the N (360 degrees) at 5 MPH (4 knots; 2.1 m/s)
Visibility: 6 or more miles (10+ km)
Ceiling: ceiling and visibility are OK
Clouds: unknown
Weather: no significant weather observed at this time

METAR text: OMDB 161900Z 35007KT 320V040 CAVOK 34/28 Q1005 NOSIG
Conditions at: OMDB (DUBAI INTL AIRPO, AE) observed 1900 UTC 16 September 2019
Temperature: 34.0°C (93°F)
Dewpoint: 28.0°C (82°F) [RH = 71%]
Pressure (altimeter): 29.68 inches Hg (1005.0 mb)
Winds: from the N (350 degrees) at 8 MPH (7 knots; 3.6 m/s)
Visibility: 6 or more miles (10+ km)
Ceiling: ceiling and visibility are OK
Clouds: unknown
Weather: no significant weather observed at this time

METAR text: OMDB 161800Z 35007KT CAVOK 34/28 Q1005 NOSIG
Conditions at: OMDB (DUBAI INTL AIRPO, AE) observed 1800 UTC 16 September 2019
Temperature: 34.0°C (93°F)
Dewpoint: 28.0°C (82°F) [RH = 71%]
Pressure (altimeter): 29.68 inches Hg (1005.0 mb)
Winds: from the N (350 degrees) at 8 MPH (7 knots; 3.6 m/s)
Visibility: 6 or more miles (10+ km)
Ceiling: ceiling and visibility are OK
Clouds: unknown
Weather: no significant weather observed at this time

METAR text: OMDB 161700Z 35004KT 310V040 CAVOK 34/27 Q1005 NOSIG
Conditions at: OMDB (DUBAI INTL AIRPO, AE) observed 1700 UTC 16 September 2019
Temperature: 34.0°C (93°F)
Dewpoint: 27.0°C (81°F) [RH = 67%]
Pressure (altimeter): 29.68 inches Hg (1005.0 mb)
Winds: from the N (350 degrees) at 5 MPH (4 knots; 2.1 m/s)
Visibility: 6 or more miles (10+ km)
Ceiling: ceiling and visibility are OK
Clouds: unknown
Weather: no significant weather observed at this time

METAR text: OMDB 161600Z 35005KT 300V050 CAVOK 34/26 Q1004 NOSIG
Conditions at: OMDB (DUBAI INTL AIRPO, AE) observed 1600 UTC 16 September 2019
Temperature: 34.0°C (93°F)
Dewpoint: 26.0°C (79°F) [RH = 63%]
Pressure (altimeter): 29.65 inches Hg (1004.0 mb)
Winds: from the N (350 degrees) at 6 MPH (5 knots; 2.6 m/s)
Visibility: 6 or more miles (10+ km)
Ceiling: ceiling and visibility are OK
Clouds: unknown
Weather: no significant weather observed at this time

METAR text: OMDB 161500Z 34007KT 320V020 CAVOK 35/26 Q1004 NOSIG
Conditions at: OMDB (DUBAI INTL AIRPO, AE) observed 1500 UTC 16 September 2019
Temperature: 35.0°C (95°F)
Dewpoint: 26.0°C (79°F) [RH = 60%]
Pressure (altimeter): 29.65 inches Hg (1004.0 mb)
Winds: from the NNW (340 degrees) at 8 MPH (7 knots; 3.6 m/s)
Visibility: 6 or more miles (10+ km)
Ceiling: ceiling and visibility are OK
Clouds: unknown
Weather: no significant weather observed at this time

METAR text: OMDB 161400Z 33008KT CAVOK 35/26 Q1004 NOSIG
Conditions at: OMDB (DUBAI INTL AIRPO, AE) observed 1400 UTC 16 September 2019
Temperature: 35.0°C (95°F)
Dewpoint: 26.0°C (79°F) [RH = 60%]
Pressure (altimeter): 29.65 inches Hg (1004.0 mb)
Winds: from the NNW (330 degrees) at 9 MPH (8 knots; 4.1 m/s)
Visibility: 6 or more miles (10+ km)
Ceiling: ceiling and visibility are OK
Clouds: unknown
Weather: no significant weather observed at this time

METAR text: OMDB 161300Z 01010KT CAVOK 36/25 Q1004 NOSIG
Conditions at: OMDB (DUBAI INTL AIRPO, AE) observed 1300 UTC 16 September 2019
Temperature: 36.0°C (97°F)
Dewpoint: 25.0°C (77°F) [RH = 53%]
Pressure (altimeter): 29.65 inches Hg (1004.0 mb)
Winds: from the N (10 degrees) at 12 MPH (10 knots; 5.1 m/s)
Visibility: 6 or more miles (10+ km)
Ceiling: ceiling and visibility are OK
Clouds: unknown
Weather: no significant weather observed at this time

METAR text: OMDB 161200Z 33012KT CAVOK 37/25 Q1004 NOSIG
Conditions at: OMDB (DUBAI INTL AIRPO, AE) observed 1200 UTC 16 September 2019
Temperature: 37.0°C (99°F)
Dewpoint: 25.0°C (77°F) [RH = 50%]
Pressure (altimeter): 29.65 inches Hg (1004.0 mb)
Winds: from the NNW (330 degrees) at 14 MPH (12 knots; 6.2 m/s)
Visibility: 6 or more miles (10+ km)
Ceiling: ceiling and visibility are OK
Clouds: unknown
Weather: no significant weather observed at this time

METAR text: OMDB 161100Z 31012KT 280V010 CAVOK 38/24 Q1004 NOSIG
Conditions at: OMDB (DUBAI INTL AIRPO, AE) observed 1100 UTC 16 September 2019
Temperature: 38.0°C (100°F)
Dewpoint: 24.0°C (75°F) [RH = 45%]
Pressure (altimeter): 29.65 inches Hg (1004.0 mb)
Winds: from the NW (310 degrees) at 14 MPH (12 knots; 6.2 m/s)
Visibility: 6 or more miles (10+ km)
Ceiling: ceiling and visibility are OK
Clouds: unknown
Weather: no significant weather observed at this time

METAR text: OMDB 161000Z 33011KT CAVOK 38/23 Q1005 NOSIG
Conditions at: OMDB (DUBAI INTL AIRPO, AE) observed 1000 UTC 16 September 2019
Temperature: 38.0°C (100°F)
Dewpoint: 23.0°C (73°F) [RH = 42%]
Pressure (altimeter): 29.68 inches Hg (1005.0 mb)
Winds: from the NNW (330 degrees) at 13 MPH (11 knots; 5.7 m/s)
Visibility: 6 or more miles (10+ km)
Ceiling: ceiling and visibility are OK
Clouds: unknown
Weather: no significant weather observed at this time

METAR text: OMDB 160900Z 27005KT 200V010 CAVOK 39/23 Q1006 BECMG 34012KT
Conditions at: OMDB (DUBAI INTL AIRPO, AE) observed 0900 UTC 16 September 2019
Temperature: 39.0°C (102°F)
Dewpoint: 23.0°C (73°F) [RH = 40%]
Pressure (altimeter): 29.70 inches Hg (1006.0 mb)
Winds: from the W (270 degrees) at 6 MPH (5 knots; 2.6 m/s)
Visibility: 6 or more miles (10+ km)
Ceiling: ceiling and visibility are OK
Clouds: unknown
Weather: no significant weather observed at this time

METAR text: OMDB 160800Z 25005KT 200V330 CAVOK 38/20 Q1007 BECMG 34012KT
Conditions at: OMDB (DUBAI INTL AIRPO, AE) observed 0800 UTC 16 September 2019
Temperature: 38.0°C (100°F)
Dewpoint: 20.0°C (68°F) [RH = 35%]
Pressure (altimeter): 29.73 inches Hg (1007.0 mb)
Winds: from the WSW (250 degrees) at 6 MPH (5 knots; 2.6 m/s)
Visibility: 6 or more miles (10+ km)
Ceiling: ceiling and visibility are OK
Clouds: unknown
Weather: no significant weather observed at this time

METAR text: OMDB 160700Z VRB05KT CAVOK 37/22 Q1007 BECMG 34012KT
Conditions at: OMDB (DUBAI INTL AIRPO, AE) observed 0700 UTC 16 September 2019
Temperature: 37.0°C (99°F)
Dewpoint: 22.0°C (72°F) [RH = 42%]
Pressure (altimeter): 29.73 inches Hg (1007.0 mb)
Winds: variable direction winds at 6 MPH (5 knots; 2.6 m/s)
Visibility: 6 or more miles (10+ km)
Ceiling: ceiling and visibility are OK
Clouds: unknown
Weather: no significant weather observed at this time

METAR text: OMDB 160600Z 22007KT 170V250 CAVOK 34/22 Q1008 NOSIG
Conditions at: OMDB (DUBAI INTL AIRPO, AE) observed 0600 UTC 16 September 2019
Temperature: 34.0°C (93°F)
Dewpoint: 22.0°C (72°F) [RH = 50%]
Pressure (altimeter): 29.76 inches Hg (1008.0 mb)
Winds: from the SW (220 degrees) at 8 MPH (7 knots; 3.6 m/s)
Visibility: 6 or more miles (10+ km)
Ceiling: ceiling and visibility are OK
Clouds: unknown
Weather: no significant weather observed at this time

METAR text: OMDB 160500Z 21009KT 180V250 CAVOK 33/22 Q1008 NOSIG
Conditions at: OMDB (DUBAI INTL AIRPO, AE) observed 0500 UTC 16 September 2019
Temperature: 33.0°C (91°F)
Dewpoint: 22.0°C (72°F) [RH = 53%]
Pressure (altimeter): 29.76 inches Hg (1008.0 mb)
Winds: from the SSW (210 degrees) at 10 MPH (9 knots; 4.6 m/s)
Visibility: 6 or more miles (10+ km)
Ceiling: ceiling and visibility are OK
Clouds: unknown
Weather: no significant weather observed at this time

METAR text: OMDB 160400Z 19010KT CAVOK 32/21 Q1007 NOSIG
Conditions at: OMDB (DUBAI INTL AIRPO, AE) observed 0400 UTC 16 September 2019
Temperature: 32.0°C (90°F)
Dewpoint: 21.0°C (70°F) [RH = 52%]
Pressure (altimeter): 29.73 inches Hg (1007.0 mb)
Winds: from the S (190 degrees) at 12 MPH (10 knots; 5.1 m/s)
Visibility: 6 or more miles (10+ km)
Ceiling: ceiling and visibility are OK
Clouds: unknown
Weather: no significant weather observed at this time

METAR text: OMDB 160300Z 18007KT 8000 NSC 32/21 Q1006 NOSIG
Conditions at: OMDB (DUBAI INTL AIRPO, AE) observed 0300 UTC 16 September 2019
Temperature: 32.0°C (90°F)
Dewpoint: 21.0°C (70°F) [RH = 52%]
Pressure (altimeter): 29.70 inches Hg (1006.0 mb)
Winds: from the S (180 degrees) at 8 MPH (7 knots; 3.6 m/s)
Visibility: 5 miles ( 8 km)
Ceiling: at least 12,000 feet AGL
Clouds: sky clear below 12,000 feet AGL
Weather: no significant weather observed at this time

METAR text: OMDB 160200Z 17006KT 8000 NSC 32/27 Q1006 NOSIG
Conditions at: OMDB (DUBAI INTL AIRPO, AE) observed 0200 UTC 16 September 2019
Temperature: 32.0°C (90°F)
Dewpoint: 27.0°C (81°F) [RH = 75%]
Pressure (altimeter): 29.70 inches Hg (1006.0 mb)
Winds: from the S (170 degrees) at 7 MPH (6 knots; 3.1 m/s)
Visibility: 5 miles ( 8 km)
Ceiling: at least 12,000 feet AGL
Clouds: sky clear below 12,000 feet AGL
Weather: no significant weather observed at this time

METAR text: OMDB 160100Z 11008KT 060V150 9000 NSC 33/27 Q1005 NOSIG
Conditions at: OMDB (DUBAI INTL AIRPO, AE) observed 0100 UTC 16 September 2019
Temperature: 33.0°C (91°F)
Dewpoint: 27.0°C (81°F) [RH = 71%]
Pressure (altimeter): 29.68 inches Hg (1005.0 mb)
Winds: from the ESE (110 degrees) at 9 MPH (8 knots; 4.1 m/s)
Visibility: 6 miles ( 9 km)
Ceiling: at least 12,000 feet AGL
Clouds: sky clear below 12,000 feet AGL
Weather: no significant weather observed at this time

Forecast for: OMDB (DUBAI INTL AIRPO, AE)
Text: TAF OMDB 171054Z 1712/1818 34012KT 8000 NSC
Forecast period: 1200 to 1800 UTC 17 September 2019
Forecast type: FROM: standard forecast or significant change
Winds: from the NNW (340 degrees) at 14 MPH (12 knots; 6.2 m/s)
Visibility: 5 miles (8 km)
Ceiling: unknown
Clouds: missing
Weather: no significant weather forecast for this period
Text: BECMG 1718/1720 12005KT
Forecast period: 1800 UTC 17 September 2019 to 0700 UTC 18 September 2019
Forecast type: BECOMING: Conditions expected to become as follows by 2000 UTC 17 September 2019
Winds: from the ESE (120 degrees) at 6 MPH (5 knots; 2.6 m/s)
Visibility: 5 miles (8 km)
Ceiling: unknown
Clouds: missing
Weather: no significant weather forecast for this period
Text: PROB30 1800/1804 4000 HZ
Forecast period: 0000 to 0400 UTC 18 September 2019
Forecast type: PROBABLE: 30 percent likelihood of the following during this time
Visibility: 2.49 miles (4.01 km)
Ceiling: unknown
Clouds: missing
Weather: HZ  (haze)
Text: BECMG 1807/1809 34012KT
Forecast period: 0700 to 1600 UTC 18 September 2019
Forecast type: BECOMING: Conditions expected to become as follows by 0900 UTC 18 September 2019
Winds: from the NNW (340 degrees) at 14 MPH (12 knots; 6.2 m/s)
Visibility: 5 miles (8 km)
Ceiling: unknown
Clouds: missing
Weather: no significant weather forecast for this period
Text: BECMG 1816/1818 09005KT
Forecast period: 1600 to 1800 UTC 18 September 2019
Forecast type: BECOMING: Conditions expected to become as follows by 1800 UTC 18 September 2019
Winds: from the E (90 degrees) at 6 MPH (5 knots; 2.6 m/s)
Visibility: 5 miles (8 km)
Ceiling: unknown
Clouds: missing
Weather: no significant weather forecast for this period